createdAt,value
2023-03-28T00:00:29.093Z,5.70
2023-03-28T00:02:01.764Z,5.71
2023-03-28T00:03:39.618Z,5.65
2023-03-28T00:05:12.329Z,5.54
2023-03-28T00:06:46.664Z,5.51
2023-03-28T00:08:18.227Z,5.50
2023-03-28T00:09:50.427Z,5.49
2023-03-28T00:11:22.049Z,5.48
2023-03-28T00:12:53.658Z,5.47
2023-03-28T00:14:25.693Z,5.46
2023-03-28T00:16:02.099Z,5.46
2023-03-28T00:17:35.692Z,5.42
2023-03-28T00:19:11.804Z,5.38
2023-03-28T00:20:43.872Z,5.33
2023-03-28T00:22:16.148Z,5.34
2023-03-28T00:23:52.456Z,5.36
2023-03-28T00:25:25.378Z,5.37
2023-03-28T00:27:00.909Z,5.37
2023-03-28T00:28:34.988Z,5.39
2023-03-28T00:30:08.355Z,5.43
2023-03-28T00:31:40.458Z,5.44
2023-03-28T00:33:12.191Z,5.42
2023-03-28T00:34:43.762Z,5.40
2023-03-28T00:36:18.620Z,5.39
2023-03-28T00:37:52.383Z,5.43
2023-03-28T00:39:23.922Z,5.41
2023-03-28T00:40:58.485Z,5.41
2023-03-28T00:42:30.833Z,5.38
2023-03-28T00:44:02.599Z,5.35
2023-03-28T00:45:34.199Z,5.34
2023-03-28T00:47:06.580Z,5.30
2023-03-28T00:48:38.487Z,5.28
2023-03-28T00:50:11.851Z,5.19
2023-03-28T00:51:45.003Z,5.15
2023-03-28T00:53:17.384Z,5.12
2023-03-28T00:54:49.430Z,5.05
2023-03-28T00:56:21.976Z,5.01
2023-03-28T00:57:54.841Z,4.93
2023-03-28T00:59:27.333Z,4.79
2023-03-28T01:00:58.883Z,4.61
2023-03-28T01:02:30.475Z,4.53
2023-03-28T01:04:05.672Z,4.45
2023-03-28T01:05:37.234Z,4.40
2023-03-28T01:07:08.748Z,4.34
2023-03-28T01:08:40.553Z,4.34
2023-03-28T01:10:12.260Z,4.34
2023-03-28T01:11:43.970Z,4.32
2023-03-28T01:13:16.629Z,4.32
2023-03-28T01:14:49.674Z,4.30
2023-03-28T01:16:22.478Z,4.31
2023-03-28T01:17:54.436Z,4.29
2023-03-28T01:19:32.748Z,4.26
2023-03-28T01:21:19.106Z,4.19
2023-03-28T01:23:09.089Z,4.13
2023-03-28T01:24:46.003Z,4.09
2023-03-28T01:26:17.523Z,4.09
2023-03-28T01:27:52.262Z,4.07
2023-03-28T01:29:24.206Z,4.06
2023-03-28T01:31:10.921Z,4.06
2023-03-28T01:33:11.925Z,4.08
2023-03-28T01:34:46.094Z,4.11
2023-03-28T01:36:34.221Z,4.16
2023-03-28T01:38:06.796Z,4.22
2023-03-28T01:39:44.687Z,4.27
2023-03-28T01:41:16.630Z,4.33
2023-03-28T01:42:52.896Z,4.34
2023-03-28T01:44:28.034Z,4.32
2023-03-28T01:46:14.256Z,4.23
2023-03-28T01:47:45.822Z,4.17
2023-03-28T01:49:22.559Z,4.17
2023-03-28T01:50:57.534Z,4.20
2023-03-28T01:52:44.534Z,4.21
2023-03-28T01:54:16.516Z,4.18
2023-03-28T01:55:52.180Z,4.14
2023-03-28T01:57:29.760Z,4.14
2023-03-28T01:59:04.025Z,4.14
2023-03-28T02:00:40.183Z,4.12
2023-03-28T02:02:14.526Z,4.11
2023-03-28T02:03:47.977Z,4.10
2023-03-28T02:05:19.668Z,4.11
2023-03-28T02:06:51.570Z,4.11
2023-03-28T02:08:26.292Z,4.12
2023-03-28T02:09:57.790Z,4.14
2023-03-28T02:11:29.309Z,4.15
2023-03-28T02:13:04.523Z,4.18
2023-03-28T02:14:39.400Z,4.22
2023-03-28T02:16:11.312Z,4.25
2023-03-28T02:17:48.200Z,4.26
2023-03-28T02:19:21.300Z,4.27
2023-03-28T02:20:57.627Z,4.27
2023-03-28T02:22:33.756Z,4.27
2023-03-28T02:24:05.586Z,4.22
2023-03-28T02:25:37.499Z,4.19
2023-03-28T02:27:08.979Z,4.17
2023-03-28T02:28:41.170Z,4.18
2023-03-28T02:30:12.782Z,4.19
2023-03-28T02:31:44.433Z,4.19
2023-03-28T02:33:48.113Z,4.20
2023-03-28T02:35:22.090Z,4.20
2023-03-28T02:37:17.080Z,4.17
2023-03-28T02:38:53.511Z,4.15
2023-03-28T02:40:27.663Z,4.07
2023-03-28T02:42:08.954Z,4.02
2023-03-28T02:43:43.557Z,3.95
2023-03-28T02:45:33.706Z,3.90
2023-03-28T02:47:05.780Z,3.86
2023-03-28T02:48:46.189Z,3.86
2023-03-28T02:50:48.934Z,3.89
2023-03-28T02:52:40.325Z,3.86
2023-03-28T02:54:11.951Z,3.88
2023-03-28T02:55:46.365Z,3.88
2023-03-28T02:57:27.359Z,3.89
2023-03-28T02:59:00.162Z,3.86
2023-03-28T03:00:31.788Z,3.84
2023-03-28T03:02:03.992Z,3.84
2023-03-28T03:03:36.986Z,3.85
2023-03-28T03:05:09.787Z,3.80
2023-03-28T03:06:42.451Z,3.79
2023-03-28T03:08:14.195Z,3.79
2023-03-28T03:09:46.176Z,3.76
2023-03-28T03:11:17.699Z,3.76
2023-03-28T03:12:49.773Z,3.79
2023-03-28T03:14:21.382Z,3.80
2023-03-28T03:15:54.629Z,3.80
2023-03-28T03:17:27.176Z,3.80
2023-03-28T03:18:58.781Z,3.80
2023-03-28T03:20:34.228Z,3.82
2023-03-28T03:22:05.907Z,3.80
2023-03-28T03:23:37.598Z,3.78
2023-03-28T03:25:09.404Z,3.78
2023-03-28T03:26:40.949Z,3.77
2023-03-28T03:28:13.172Z,3.72
2023-03-28T03:29:44.772Z,3.58
2023-03-28T03:31:17.624Z,3.54
2023-03-28T03:32:49.238Z,3.52
2023-03-28T03:34:20.946Z,3.54
2023-03-28T03:35:53.599Z,3.58
2023-03-28T03:37:25.519Z,3.61
2023-03-28T03:38:57.359Z,3.64
2023-03-28T03:40:28.882Z,3.57
2023-03-28T03:42:00.465Z,3.56
2023-03-28T03:43:32.509Z,3.50
2023-03-28T03:45:04.713Z,3.35
2023-03-28T03:46:36.814Z,3.19
2023-03-28T03:48:08.609Z,3.10
2023-03-28T03:49:40.346Z,3.06
2023-03-28T03:51:11.868Z,3.03
2023-03-28T03:52:43.905Z,3.01
2023-03-28T03:54:15.797Z,3.05
2023-03-28T03:55:47.352Z,3.04
2023-03-28T03:57:19.042Z,3.05
2023-03-28T03:58:51.110Z,3.04
2023-03-28T04:00:22.642Z,3.00
2023-03-28T04:01:55.867Z,3.00
2023-03-28T04:03:27.550Z,3.02
2023-03-28T04:04:59.995Z,3.03
2023-03-28T04:06:31.600Z,2.98
2023-03-28T04:08:03.417Z,2.94
2023-03-28T04:09:35.488Z,2.88
2023-03-28T04:11:08.402Z,2.91
2023-03-28T04:12:40.321Z,2.89
2023-03-28T04:14:11.827Z,2.90
2023-03-28T04:15:43.404Z,2.90
2023-03-28T04:17:16.506Z,2.92
2023-03-28T04:18:51.146Z,2.94
2023-03-28T04:20:26.855Z,2.90
2023-03-28T04:21:59.314Z,2.85
2023-03-28T04:23:31.345Z,2.82
2023-03-28T04:25:03.101Z,2.79
2023-03-28T04:26:38.056Z,2.81
2023-03-28T04:28:10.400Z,2.77
2023-03-28T04:29:42.580Z,2.76
2023-03-28T04:31:14.050Z,2.81
2023-03-28T04:32:49.595Z,2.85
2023-03-28T04:34:25.858Z,2.89
2023-03-28T04:36:00.665Z,2.85
2023-03-28T04:37:32.622Z,2.82
2023-03-28T04:39:04.560Z,2.80
2023-03-28T04:40:39.264Z,2.72
2023-03-28T04:42:10.781Z,2.71
2023-03-28T04:43:43.516Z,2.73
2023-03-28T04:45:17.702Z,2.73
2023-03-28T04:46:51.158Z,2.77
2023-03-28T04:48:22.977Z,2.79
2023-03-28T04:49:54.532Z,2.81
2023-03-28T04:51:28.659Z,2.84
2023-03-28T04:53:00.377Z,2.86
2023-03-28T04:54:32.080Z,2.88
2023-03-28T04:56:03.568Z,2.89
2023-03-28T04:57:37.302Z,2.88
2023-03-28T04:59:08.814Z,2.88
2023-03-28T05:00:40.331Z,2.90
2023-03-28T05:02:12.242Z,2.87
2023-03-28T05:03:44.137Z,2.79
2023-03-28T05:05:15.964Z,2.76
2023-03-28T05:06:48.270Z,2.76
2023-03-28T05:08:20.957Z,2.75
2023-03-28T05:09:52.995Z,2.74
2023-03-28T05:11:24.602Z,2.72
2023-03-28T05:12:58.599Z,2.65
2023-03-28T05:14:30.273Z,2.59
2023-03-28T05:16:01.892Z,2.56
2023-03-28T05:17:33.705Z,2.56
2023-03-28T05:19:05.666Z,2.55
2023-03-28T05:20:37.766Z,2.49
2023-03-28T05:22:09.741Z,2.40
2023-03-28T05:23:41.858Z,2.39
2023-03-28T05:25:13.568Z,2.38
2023-03-28T05:26:45.588Z,2.42
2023-03-28T05:28:17.122Z,2.48
2023-03-28T05:29:48.820Z,2.53
2023-03-28T05:31:20.430Z,2.59
2023-03-28T05:32:52.247Z,2.63
2023-03-28T05:34:24.342Z,2.67
2023-03-28T05:35:56.306Z,2.73
2023-03-28T05:37:28.538Z,2.80
2023-03-28T05:39:00.344Z,2.86
2023-03-28T05:40:31.975Z,2.91
2023-03-28T05:42:03.722Z,3.00
2023-03-28T05:43:35.770Z,3.03
2023-03-28T05:45:07.812Z,3.07
2023-03-28T05:46:39.989Z,3.12
2023-03-28T05:48:11.715Z,3.15
2023-03-28T05:49:43.953Z,3.17
2023-03-28T05:51:15.631Z,3.19
2023-03-28T05:52:47.118Z,3.22
2023-03-28T05:54:18.594Z,3.18
2023-03-28T05:55:50.686Z,3.13
2023-03-28T05:57:22.344Z,3.08
2023-03-28T05:58:53.943Z,3.05
2023-03-28T06:00:25.942Z,3.03
2023-03-28T06:01:57.893Z,3.05
2023-03-28T06:03:32.073Z,3.04
2023-03-28T06:05:03.926Z,3.01
2023-03-28T06:06:35.498Z,3.00
2023-03-28T06:08:09.588Z,3.00
2023-03-28T06:09:41.244Z,3.00
2023-03-28T06:11:12.896Z,3.03
2023-03-28T06:12:44.530Z,3.02
2023-03-28T06:14:16.041Z,3.01
2023-03-28T06:15:47.818Z,2.98
2023-03-28T06:17:19.551Z,2.97
2023-03-28T06:18:51.072Z,2.95
2023-03-28T06:20:22.648Z,2.95
2023-03-28T06:21:54.249Z,2.90
2023-03-28T06:23:25.977Z,2.90
2023-03-28T06:24:57.862Z,2.93
2023-03-28T06:26:30.375Z,2.96
2023-03-28T06:28:02.337Z,2.95
2023-03-28T06:29:34.272Z,2.95
2023-03-28T06:31:05.944Z,2.96
2023-03-28T06:32:37.583Z,2.96
2023-03-28T06:34:09.175Z,2.96
2023-03-28T06:35:40.902Z,2.94
2023-03-28T06:37:12.437Z,2.91
2023-03-28T06:38:44.459Z,2.89
2023-03-28T06:40:16.162Z,2.88
2023-03-28T06:41:47.662Z,2.87
2023-03-28T06:43:19.241Z,2.89
2023-03-28T06:44:50.837Z,2.90
2023-03-28T06:46:22.355Z,2.89
2023-03-28T06:47:54.173Z,2.88
2023-03-28T06:49:25.958Z,2.89
2023-03-28T06:50:58.485Z,2.91
2023-03-28T06:52:30.906Z,2.89
2023-03-28T06:54:02.729Z,2.96
2023-03-28T06:55:35.746Z,2.98
2023-03-28T06:57:07.504Z,3.03
2023-03-28T06:58:39.508Z,3.07
2023-03-28T07:00:11.568Z,3.08
2023-03-28T07:01:43.495Z,3.06
2023-03-28T07:03:15.100Z,3.02
2023-03-28T07:04:47.043Z,3.02
2023-03-28T07:06:18.622Z,3.03
2023-03-28T07:07:50.212Z,3.03
2023-03-28T07:09:21.846Z,3.05
2023-03-28T07:10:53.276Z,3.07
2023-03-28T07:12:25.010Z,3.11
2023-03-28T07:13:56.611Z,3.11
2023-03-28T07:15:28.228Z,3.05
2023-03-28T07:17:00.042Z,2.99
2023-03-28T07:18:31.907Z,2.89
2023-03-28T07:20:04.833Z,2.84
2023-03-28T07:21:37.017Z,2.83
2023-03-28T07:23:08.605Z,2.82
2023-03-28T07:24:40.993Z,2.78
2023-03-28T07:26:13.502Z,2.81
2023-03-28T07:27:45.902Z,2.77
2023-03-28T07:29:17.352Z,2.74
2023-03-28T07:30:48.830Z,2.72
2023-03-28T07:32:20.542Z,2.71
2023-03-28T07:33:52.440Z,2.71
2023-03-28T07:35:24.186Z,2.71
2023-03-28T07:36:56.428Z,2.72
2023-03-28T07:38:28.042Z,2.74
2023-03-28T07:40:00.391Z,2.79
2023-03-28T07:41:32.398Z,2.80
2023-03-28T07:43:04.460Z,2.79
2023-03-28T07:44:36.520Z,2.76
2023-03-28T07:46:09.399Z,2.70
2023-03-28T07:47:42.333Z,2.61
2023-03-28T07:49:15.480Z,2.52
2023-03-28T07:50:50.020Z,2.51
2023-03-28T07:52:21.884Z,2.59
2023-03-28T07:53:53.428Z,2.60
2023-03-28T07:55:26.081Z,2.59
2023-03-28T07:56:57.969Z,2.63
2023-03-28T07:58:29.549Z,2.70
2023-03-28T08:00:02.029Z,2.81
2023-03-28T08:01:34.222Z,2.89
2023-03-28T08:03:06.073Z,2.92
2023-03-28T08:04:37.986Z,2.98
2023-03-28T08:06:20.643Z,3.02
2023-03-28T08:08:01.463Z,3.06
2023-03-28T08:09:33.508Z,3.17
2023-03-28T08:11:06.224Z,3.26
2023-03-28T08:12:38.421Z,3.36
2023-03-28T08:14:11.214Z,3.42
2023-03-28T08:15:43.202Z,3.46
2023-03-28T08:17:14.950Z,3.49
2023-03-28T08:18:54.397Z,3.58
2023-03-28T08:20:31.892Z,3.65
2023-03-28T08:22:03.797Z,3.71
2023-03-28T08:23:36.037Z,3.67
2023-03-28T08:25:08.157Z,3.62
2023-03-28T08:26:39.980Z,3.63
2023-03-28T08:28:11.595Z,3.62
2023-03-28T08:29:43.268Z,3.64
2023-03-28T08:31:15.406Z,3.64
2023-03-28T08:32:48.975Z,3.62
2023-03-28T08:34:20.811Z,3.66
2023-03-28T08:35:53.539Z,3.61
2023-03-28T08:37:25.222Z,3.56
2023-03-28T08:39:00.717Z,3.54
2023-03-28T08:40:32.510Z,3.51
2023-03-28T08:42:22.370Z,3.53
2023-03-28T08:43:56.955Z,3.51
2023-03-28T08:45:31.598Z,3.55
2023-03-28T08:47:04.088Z,3.60
2023-03-28T08:48:40.071Z,3.69
2023-03-28T08:50:20.062Z,3.75
2023-03-28T08:52:01.769Z,3.77
2023-03-28T08:53:42.578Z,3.74
2023-03-28T08:55:23.732Z,3.74
2023-03-28T08:56:58.611Z,3.71
2023-03-28T08:58:34.863Z,3.72
2023-03-28T09:00:24.822Z,3.73
2023-03-28T09:01:56.456Z,3.77
2023-03-28T09:03:28.180Z,3.80
2023-03-28T09:05:17.857Z,3.82
2023-03-28T09:06:53.035Z,3.91
2023-03-28T09:08:48.307Z,4.00
2023-03-28T09:10:22.932Z,4.06
2023-03-28T09:12:10.100Z,4.10
2023-03-28T09:13:41.720Z,4.12
2023-03-28T09:15:23.039Z,4.15
2023-03-28T09:17:18.020Z,4.17
2023-03-28T09:19:10.638Z,4.23
2023-03-28T09:20:48.395Z,4.27
2023-03-28T09:22:32.611Z,4.30
2023-03-28T09:24:07.025Z,4.31
2023-03-28T09:25:42.553Z,4.36
2023-03-28T09:27:17.094Z,4.41
2023-03-28T09:29:07.689Z,4.43
2023-03-28T09:30:45.979Z,4.46
2023-03-28T09:32:19.051Z,4.46
2023-03-28T09:33:51.048Z,4.43
2023-03-28T09:35:23.279Z,4.39
2023-03-28T09:36:57.803Z,4.40
2023-03-28T09:38:33.696Z,4.43
2023-03-28T09:40:17.920Z,4.48
2023-03-28T09:41:52.617Z,4.49
2023-03-28T09:43:24.316Z,4.50
2023-03-28T09:45:02.313Z,4.52
2023-03-28T09:46:44.366Z,4.52
2023-03-28T09:48:19.896Z,4.52
2023-03-28T09:50:02.323Z,4.52
2023-03-28T09:51:41.582Z,4.49
2023-03-28T09:53:39.608Z,4.44
2023-03-28T09:55:16.007Z,4.42
2023-03-28T09:56:47.752Z,4.41
2023-03-28T09:58:19.805Z,4.45
2023-03-28T09:59:51.913Z,4.48
2023-03-28T10:01:32.996Z,4.53
2023-03-28T10:03:05.084Z,4.54
2023-03-28T10:04:37.192Z,4.55
2023-03-28T10:06:18.789Z,4.52
2023-03-28T10:07:50.620Z,4.50
2023-03-28T10:09:23.479Z,4.47
2023-03-28T10:10:56.263Z,4.46
2023-03-28T10:12:34.776Z,4.39
2023-03-28T10:14:10.191Z,4.30
2023-03-28T10:15:41.984Z,4.13
2023-03-28T10:17:17.894Z,3.99
2023-03-28T10:18:50.126Z,3.98
2023-03-28T10:20:22.058Z,4.16
2023-03-28T10:21:53.767Z,4.37
2023-03-28T10:23:25.807Z,4.60
2023-03-28T10:24:57.655Z,4.72
2023-03-28T10:26:29.183Z,4.78
2023-03-28T10:28:01.441Z,4.77
2023-03-28T10:29:33.817Z,4.73
2023-03-28T10:31:06.125Z,4.75
2023-03-28T10:32:37.806Z,4.74
2023-03-28T10:34:10.488Z,4.77
2023-03-28T10:35:46.036Z,4.74
2023-03-28T10:37:27.602Z,4.69
2023-03-28T10:38:59.673Z,4.68
2023-03-28T10:40:31.984Z,4.67
2023-03-28T10:42:04.161Z,4.71
2023-03-28T10:43:36.744Z,4.84
2023-03-28T10:45:13.778Z,4.88
2023-03-28T10:46:45.550Z,4.99
2023-03-28T10:48:22.873Z,5.07
2023-03-28T10:49:55.246Z,5.09
2023-03-28T10:51:26.879Z,5.14
2023-03-28T10:53:01.430Z,5.21
2023-03-28T10:54:35.921Z,5.29
2023-03-28T10:56:25.976Z,5.29
2023-03-28T10:58:00.126Z,5.30
2023-03-28T10:59:38.146Z,5.33
2023-03-28T11:01:11.549Z,5.24
2023-03-28T11:02:49.724Z,5.24
2023-03-28T11:04:40.061Z,5.22
2023-03-28T11:06:18.270Z,5.26
2023-03-28T11:08:04.835Z,5.36
2023-03-28T11:09:36.764Z,5.47
2023-03-28T11:11:11.376Z,5.67
2023-03-28T11:12:55.559Z,5.80
2023-03-28T11:14:31.061Z,5.90
2023-03-28T11:16:12.109Z,5.87
2023-03-28T11:17:48.234Z,5.84
2023-03-28T11:19:20.180Z,5.80
2023-03-28T11:21:09.812Z,5.76
2023-03-28T11:22:58.782Z,5.84
2023-03-28T11:24:37.537Z,5.92
2023-03-28T11:26:16.320Z,5.89
2023-03-28T11:27:56.135Z,5.86
2023-03-28T11:29:47.103Z,5.97
2023-03-28T11:31:20.789Z,6.07
2023-03-28T11:32:57.762Z,6.13
2023-03-28T11:34:36.032Z,6.26
2023-03-28T11:36:11.240Z,6.31
2023-03-28T11:37:48.372Z,6.30
2023-03-28T11:39:22.187Z,6.28
2023-03-28T11:40:53.883Z,6.22
2023-03-28T11:42:27.965Z,6.13
2023-03-28T11:44:01.465Z,6.03
2023-03-28T11:45:50.973Z,5.96
2023-03-28T11:47:26.047Z,5.97
2023-03-28T11:49:16.517Z,6.03
2023-03-28T11:50:48.536Z,6.04
2023-03-28T11:52:28.549Z,6.04
2023-03-28T11:54:04.296Z,5.97
2023-03-28T11:55:36.924Z,5.99
2023-03-28T11:57:14.451Z,5.99
2023-03-28T11:58:46.761Z,6.01
2023-03-28T12:00:32.677Z,6.17
2023-03-28T12:02:12.877Z,6.38
2023-03-28T12:03:51.404Z,6.52
2023-03-28T12:05:40.738Z,6.59
2023-03-28T12:07:16.262Z,6.70
2023-03-28T12:08:50.974Z,6.61
2023-03-28T12:10:36.601Z,6.51
2023-03-28T12:12:16.645Z,6.40
2023-03-28T12:13:55.487Z,6.33
2023-03-28T12:15:38.226Z,6.35
2023-03-28T12:17:17.496Z,6.48
2023-03-28T12:18:52.827Z,6.62
2023-03-28T12:20:31.437Z,6.71
2023-03-28T12:22:06.137Z,6.79
2023-03-28T12:23:38.532Z,6.86
2023-03-28T12:25:14.392Z,6.96
2023-03-28T12:26:54.737Z,7.12
2023-03-28T12:28:40.446Z,7.18
2023-03-28T12:30:14.887Z,7.32
2023-03-28T12:31:48.022Z,7.44
2023-03-28T12:33:29.464Z,7.63
2023-03-28T12:35:33.944Z,7.86
2023-03-28T12:37:12.653Z,7.83
2023-03-28T12:38:47.861Z,7.83
2023-03-28T12:40:39.928Z,7.82
2023-03-28T12:42:12.199Z,7.83
2023-03-28T12:43:46.081Z,7.79
2023-03-28T12:45:21.698Z,7.69
2023-03-28T12:46:54.420Z,7.56
2023-03-28T12:48:45.914Z,7.31
2023-03-28T12:50:37.736Z,7.00
2023-03-28T12:52:12.244Z,6.76
2023-03-28T12:53:45.538Z,6.59
2023-03-28T12:55:26.941Z,6.56
2023-03-28T12:57:03.171Z,6.51
2023-03-28T12:58:35.377Z,6.49
2023-03-28T13:00:16.614Z,6.38
2023-03-28T13:01:48.594Z,6.36
2023-03-28T13:03:35.657Z,6.36
2023-03-28T13:05:09.875Z,6.32
2023-03-28T13:06:42.507Z,6.29
2023-03-28T13:08:24.623Z,6.22
2023-03-28T13:09:59.848Z,6.21
2023-03-28T13:11:37.429Z,6.24
2023-03-28T13:13:21.670Z,6.31
2023-03-28T13:15:01.292Z,6.31
2023-03-28T13:16:53.526Z,6.32
2023-03-28T13:18:25.819Z,6.24
2023-03-28T13:19:59.927Z,6.12
2023-03-28T13:21:41.600Z,6.02
2023-03-28T13:23:13.719Z,5.99
2023-03-28T13:24:45.847Z,5.90
2023-03-28T13:26:17.617Z,5.85
2023-03-28T13:27:49.833Z,5.77
2023-03-28T13:29:22.192Z,5.70
2023-03-28T13:31:04.351Z,5.65
2023-03-28T13:32:37.886Z,5.67
2023-03-28T13:34:12.845Z,5.61
2023-03-28T13:35:45.947Z,5.63
2023-03-28T13:37:23.130Z,5.70
2023-03-28T13:38:55.247Z,5.74
2023-03-28T13:40:48.666Z,5.77
2023-03-28T13:42:27.000Z,5.79
2023-03-28T13:43:59.270Z,5.82
2023-03-28T13:45:31.291Z,5.98
2023-03-28T13:47:03.081Z,6.13
2023-03-28T13:48:38.744Z,6.22
2023-03-28T13:50:20.058Z,6.27
2023-03-28T13:51:52.547Z,6.28
2023-03-28T13:53:29.964Z,6.35
2023-03-28T13:55:15.400Z,6.51
2023-03-28T13:56:48.134Z,6.60
2023-03-28T13:58:20.165Z,6.64
2023-03-28T13:59:58.733Z,6.67
2023-03-28T14:01:34.439Z,6.61
2023-03-28T14:03:11.021Z,6.63
2023-03-28T14:04:46.734Z,6.77
2023-03-28T14:06:20.491Z,6.85
2023-03-28T14:07:52.513Z,6.83
2023-03-28T14:09:27.803Z,6.81
2023-03-28T14:11:00.876Z,6.92
2023-03-28T14:12:32.783Z,7.11
2023-03-28T14:14:08.836Z,7.29
2023-03-28T14:15:41.260Z,7.48
2023-03-28T14:17:16.855Z,7.71
2023-03-28T14:18:49.078Z,7.88
2023-03-28T14:20:21.128Z,7.99
2023-03-28T14:21:53.042Z,8.01
2023-03-28T14:23:31.520Z,7.91
2023-03-28T14:25:04.498Z,7.81
2023-03-28T14:26:36.376Z,7.62
2023-03-28T14:28:08.818Z,7.54
2023-03-28T14:29:53.499Z,7.50
2023-03-28T14:31:28.933Z,7.42
2023-03-28T14:33:20.977Z,7.37
2023-03-28T14:34:54.089Z,7.35
2023-03-28T14:36:31.529Z,7.39
2023-03-28T14:38:07.016Z,7.44
2023-03-28T14:39:41.786Z,7.33
2023-03-28T14:41:21.746Z,7.38
2023-03-28T14:43:01.000Z,7.42
2023-03-28T14:44:35.651Z,7.47
2023-03-28T14:46:08.456Z,7.54
2023-03-28T14:47:40.246Z,7.65
2023-03-28T14:49:13.873Z,7.71
2023-03-28T14:50:46.082Z,7.74
2023-03-28T14:52:22.805Z,7.76
2023-03-28T14:53:56.977Z,7.79
2023-03-28T14:55:28.744Z,7.83
2023-03-28T14:57:06.899Z,7.84
2023-03-28T14:58:39.503Z,7.80
2023-03-28T15:00:19.160Z,7.79
2023-03-28T15:01:52.029Z,7.80
2023-03-28T15:03:39.243Z,7.80
2023-03-28T15:05:13.540Z,7.80
2023-03-28T15:06:53.188Z,7.83
2023-03-28T15:08:31.345Z,7.78
2023-03-28T15:10:06.761Z,7.64
2023-03-28T15:11:39.575Z,7.51
2023-03-28T15:13:14.268Z,7.43
2023-03-28T15:14:45.939Z,7.41
2023-03-28T15:16:19.416Z,7.46
2023-03-28T15:17:51.587Z,7.50
2023-03-28T15:19:25.497Z,7.47
2023-03-28T15:20:57.458Z,7.45
2023-03-28T15:22:29.828Z,7.46
2023-03-28T15:24:04.158Z,7.49
2023-03-28T15:25:35.982Z,7.44
2023-03-28T15:27:08.120Z,7.39
2023-03-28T15:28:39.845Z,7.24
2023-03-28T15:30:15.778Z,7.17
2023-03-28T15:31:47.918Z,7.05
2023-03-28T15:33:21.186Z,6.83
2023-03-28T15:35:02.530Z,6.64
2023-03-28T15:36:34.853Z,6.57
2023-03-28T15:38:15.653Z,6.61
2023-03-28T15:39:49.829Z,6.68
2023-03-28T15:41:23.139Z,6.85
2023-03-28T15:42:54.920Z,6.96
2023-03-28T15:44:27.796Z,7.03
2023-03-28T15:46:00.005Z,7.09
2023-03-28T15:47:31.612Z,7.09
2023-03-28T15:49:03.776Z,7.15
2023-03-28T15:50:36.472Z,7.25
2023-03-28T15:52:13.997Z,7.32
2023-03-28T15:53:46.559Z,7.35
2023-03-28T15:55:19.067Z,7.34
2023-03-28T15:56:50.976Z,7.38
2023-03-28T15:58:23.484Z,7.21
2023-03-28T15:59:56.641Z,7.07
2023-03-28T16:01:32.018Z,6.97
2023-03-28T16:03:19.982Z,6.88
2023-03-28T16:04:59.118Z,6.73
2023-03-28T16:06:33.662Z,6.59
2023-03-28T16:08:16.576Z,6.40
2023-03-28T16:09:50.958Z,6.25
2023-03-28T16:11:23.893Z,6.16
2023-03-28T16:12:55.673Z,6.13
2023-03-28T16:14:27.256Z,6.10
2023-03-28T16:15:59.099Z,6.16
2023-03-28T16:17:31.146Z,6.15
2023-03-28T16:19:02.736Z,6.21
2023-03-28T16:20:35.137Z,6.23
2023-03-28T16:22:06.887Z,6.20
2023-03-28T16:23:38.539Z,6.16
2023-03-28T16:25:10.124Z,6.12
2023-03-28T16:26:41.701Z,6.09
2023-03-28T16:28:19.476Z,6.03
2023-03-28T16:29:51.706Z,5.97
2023-03-28T16:31:23.880Z,5.89
2023-03-28T16:32:56.620Z,5.81
2023-03-28T16:34:28.462Z,5.76
2023-03-28T16:36:00.945Z,5.66
2023-03-28T16:37:32.753Z,5.58
2023-03-28T16:39:05.454Z,5.46
2023-03-28T16:40:37.152Z,5.35
2023-03-28T16:42:09.013Z,5.31
2023-03-28T16:43:40.965Z,5.27
2023-03-28T16:45:13.864Z,5.30
2023-03-28T16:46:46.029Z,5.27
2023-03-28T16:48:17.616Z,5.25
2023-03-28T16:49:49.321Z,5.24
2023-03-28T16:51:21.116Z,5.22
2023-03-28T16:52:52.727Z,5.19
2023-03-28T16:54:24.275Z,5.14
2023-03-28T16:55:56.029Z,5.13
2023-03-28T16:57:27.781Z,5.12
2023-03-28T16:58:59.520Z,5.15
2023-03-28T17:00:31.279Z,5.13
2023-03-28T17:02:02.999Z,5.12
2023-03-28T17:03:34.668Z,5.08
2023-03-28T17:05:07.351Z,5.04
2023-03-28T17:06:39.030Z,5.01
2023-03-28T17:08:11.392Z,4.99
2023-03-28T17:09:43.999Z,4.92
2023-03-28T17:11:15.711Z,4.90
2023-03-28T17:12:47.693Z,4.89
2023-03-28T17:14:19.516Z,4.85
2023-03-28T17:15:53.557Z,4.73
2023-03-28T17:17:28.426Z,4.62
2023-03-28T17:19:00.236Z,4.48
2023-03-28T17:20:35.398Z,4.44
2023-03-28T17:22:07.701Z,4.34
2023-03-28T17:23:40.175Z,4.31
2023-03-28T17:25:12.111Z,4.35
2023-03-28T17:26:46.860Z,4.37
2023-03-28T17:28:18.454Z,4.36
2023-03-28T17:29:51.501Z,4.33
2023-03-28T17:31:25.478Z,4.28
2023-03-28T17:32:57.435Z,4.21
2023-03-28T17:34:32.114Z,4.18
2023-03-28T17:36:21.832Z,4.17
2023-03-28T17:37:54.258Z,4.13
2023-03-28T17:39:25.925Z,4.11
2023-03-28T17:40:57.784Z,4.11
2023-03-28T17:42:29.594Z,4.08
2023-03-28T17:44:05.170Z,4.07
2023-03-28T17:45:36.741Z,4.01
2023-03-28T17:47:08.997Z,3.99
2023-03-28T17:48:41.059Z,3.88
2023-03-28T17:50:13.309Z,3.81
2023-03-28T17:51:45.174Z,3.71
2023-03-28T17:53:16.873Z,3.68
2023-03-28T17:54:50.307Z,3.65
2023-03-28T17:56:24.702Z,3.62
2023-03-28T17:57:57.091Z,3.56
2023-03-28T17:59:29.356Z,3.55
2023-03-28T18:01:03.080Z,3.51
2023-03-28T18:02:34.888Z,3.45
2023-03-28T18:04:07.358Z,3.44
2023-03-28T18:05:39.201Z,3.43
2023-03-28T18:07:16.434Z,3.44
2023-03-28T18:08:49.426Z,3.45
2023-03-28T18:10:21.076Z,3.43
2023-03-28T18:11:52.756Z,3.39
2023-03-28T18:13:24.837Z,3.40
2023-03-28T18:14:58.916Z,3.33
2023-03-28T18:16:32.172Z,3.26
2023-03-28T18:18:05.186Z,3.20
2023-03-28T18:19:37.452Z,3.20
2023-03-28T18:21:09.418Z,3.24
2023-03-28T18:22:44.178Z,3.22
2023-03-28T18:24:16.607Z,3.20
2023-03-28T18:25:49.092Z,3.17
2023-03-28T18:27:20.668Z,3.10
2023-03-28T18:28:52.620Z,3.01
2023-03-28T18:30:27.951Z,2.94
2023-03-28T18:32:00.482Z,2.88
2023-03-28T18:33:32.515Z,2.86
2023-03-28T18:35:10.142Z,2.82
2023-03-28T18:36:42.497Z,2.77
2023-03-28T18:38:20.496Z,2.77
2023-03-28T18:39:55.748Z,2.75
2023-03-28T18:41:27.650Z,2.72
2023-03-28T18:42:59.308Z,2.69
2023-03-28T18:44:30.998Z,2.66
2023-03-28T18:46:05.356Z,2.64
2023-03-28T18:47:40.183Z,2.62
2023-03-28T18:49:11.876Z,2.60
2023-03-28T18:50:43.559Z,2.56
2023-03-28T18:52:15.647Z,2.52
2023-03-28T18:53:47.640Z,2.46
2023-03-28T18:55:19.679Z,2.45
2023-03-28T18:56:51.567Z,2.46
2023-03-28T18:58:26.498Z,2.46
2023-03-28T19:00:00.542Z,2.45
2023-03-28T19:01:34.324Z,2.44
2023-03-28T19:03:09.355Z,2.45
2023-03-28T19:04:41.567Z,2.48
2023-03-28T19:06:13.411Z,2.48
2023-03-28T19:07:45.086Z,2.49
2023-03-28T19:09:20.284Z,2.52
2023-03-28T19:10:52.726Z,2.57
2023-03-28T19:12:24.306Z,2.62
2023-03-28T19:13:56.084Z,2.62
2023-03-28T19:15:30.501Z,2.68
2023-03-28T19:17:05.873Z,2.70
2023-03-28T19:18:38.222Z,2.75
2023-03-28T19:20:13.571Z,2.77
2023-03-28T19:21:45.985Z,2.76
2023-03-28T19:23:17.920Z,2.76
2023-03-28T19:24:49.564Z,2.72
2023-03-28T19:26:24.158Z,2.71
2023-03-28T19:27:56.207Z,2.71
2023-03-28T19:29:32.195Z,2.67
2023-03-28T19:31:04.718Z,2.63
2023-03-28T19:32:36.402Z,2.63
2023-03-28T19:34:13.470Z,2.60
2023-03-28T19:35:45.096Z,2.62
2023-03-28T19:37:16.864Z,2.61
2023-03-28T19:38:48.788Z,2.63
2023-03-28T19:40:24.009Z,2.62
2023-03-28T19:42:04.529Z,2.60
2023-03-28T19:43:36.292Z,2.57
2023-03-28T19:45:08.398Z,2.54
2023-03-28T19:46:40.211Z,2.48
2023-03-28T19:48:12.840Z,2.44
2023-03-28T19:49:44.474Z,2.40
2023-03-28T19:51:18.798Z,2.38
2023-03-28T19:52:51.413Z,2.37
2023-03-28T19:54:23.651Z,2.36
2023-03-28T19:55:56.899Z,2.35
2023-03-28T19:57:28.949Z,2.33
2023-03-28T19:59:00.741Z,2.30
2023-03-28T20:00:32.455Z,2.33
2023-03-28T20:02:07.435Z,2.32
2023-03-28T20:03:39.333Z,2.34
2023-03-28T20:05:10.928Z,2.27
2023-03-28T20:06:42.530Z,2.22
2023-03-28T20:08:14.261Z,2.20
2023-03-28T20:09:51.906Z,2.18
2023-03-28T20:11:23.657Z,2.19
2023-03-28T20:12:55.607Z,2.21
2023-03-28T20:14:42.867Z,2.22
2023-03-28T20:16:15.189Z,2.26
2023-03-28T20:17:48.910Z,2.22
2023-03-28T20:19:20.529Z,2.15
2023-03-28T20:20:52.528Z,2.16
2023-03-28T20:22:27.453Z,2.21
2023-03-28T20:23:59.189Z,2.19
2023-03-28T20:25:33.140Z,2.22
2023-03-28T20:27:04.771Z,2.18
2023-03-28T20:28:36.276Z,2.16
2023-03-28T20:30:31.210Z,2.12
2023-03-28T20:32:05.094Z,2.10
2023-03-28T20:33:38.436Z,2.09
2023-03-28T20:35:10.172Z,2.09
2023-03-28T20:36:42.460Z,2.11
2023-03-28T20:38:14.002Z,2.10
2023-03-28T20:39:48.192Z,2.07
2023-03-28T20:41:24.593Z,2.07
2023-03-28T20:42:57.743Z,2.10
2023-03-28T20:44:30.178Z,2.11
2023-03-28T20:46:02.252Z,2.12
2023-03-28T20:47:37.881Z,2.10
2023-03-28T20:49:09.475Z,2.08
2023-03-28T20:50:44.911Z,2.08
2023-03-28T20:52:16.818Z,2.09
2023-03-28T20:53:51.907Z,2.09
2023-03-28T20:55:26.049Z,2.14
2023-03-28T20:56:58.619Z,2.18
2023-03-28T20:58:30.773Z,2.17